Hjaltland — VSTY8 — position and weather

sailwx.info

Track history (hours):
 
Tides and Currents Weather Stations Pressure Air Temp Water Temp Dewpoint Dewpoint Depression Visibility Wind Speed Wind Dir Waves Ship Positions

Hjaltland

Operator: NorthLink Orkey & Shetland Ferries Ltd

Last reported at 2018-Dec-11 07:28 UTC. Time now 2018-Dec-11 07:49 UTC.
Position N 57°09' W 002°05'.

Type: Ship. MMSI: 235450000.

Date/timePositionNaut miles runAvg speedWind from/ knotsBaromVisibWave heightAir tempDewpointWater temp
2018-Dec-11 07:28N 57°09' W 002°05'0 0.0
2018-Dec-11 06:58N 57°09' W 002°05'1 1.3
2018-Dec-11 06:30N 57°09' W 002°04'612.7
2018-Dec-11 06:01N 57°13' W 001°56'1414.7
2018-Dec-11 05:04N 57°24' W 001°42'111.2
2018-Dec-11 05:00N 57°25' W 001°41'612.0
2018-Dec-11 04:30N 57°31' W 001°36'97 3.6
2018-Dec-10 01:36N 59°03' W 002°27'111.8
2018-Dec-10 01:30N 59°03' W 002°28'610.6
2018-Dec-10 00:57N 59°01' W 002°39'612.6
2018-Dec-10 00:30N 59°01' W 002°50'4 3.1
2018-Dec-09 23:10N 59°00' W 002°58'313.4
2018-Dec-09 22:58N 59°01' W 002°53'919.6
2018-Dec-09 22:30N 58°56' W 002°38'8321.2
2018-Dec-09 18:35N 57°39' W 001°41'221.9
2018-Dec-09 18:30N 57°37' W 001°41'1122.2
2018-Dec-09 18:01N 57°26' W 001°39'1122.4
2018-Dec-09 17:31N 57°17' W 001°51'1121.3
2018-Dec-09 17:01N 57°09' W 002°04'1 1.6
2018-Dec-09 16:29N 57°09' W 002°05'0 0.0
2018-Dec-09 15:59N 57°09' W 002°05'0 0.0
2018-Dec-09 15:29N 57°09' W 002°05'0 0.0
2018-Dec-09 14:59N 57°09' W 002°05'0 0.0
2018-Dec-09 14:29N 57°09' W 002°05'0 0.0
2018-Dec-09 13:59N 57°09' W 002°05'0 0.0
2018-Dec-09 13:29N 57°09' W 002°05'0 0.0
2018-Dec-09 12:59N 57°09' W 002°05'0 0.0
2018-Dec-09 12:29N 57°09' W 002°05'0 0.0
2018-Dec-09 11:59N 57°09' W 002°05'0 0.0
2018-Dec-09 11:29N 57°09' W 002°05'0 0.0
2018-Dec-09 10:59N 57°09' W 002°05'0 0.0
2018-Dec-09 10:29N 57°09' W 002°05'0 0.0
2018-Dec-09 09:59N 57°09' W 002°05'0 0.0
2018-Dec-09 09:29N 57°09' W 002°05'0 0.0
2018-Dec-09 08:59N 57°09' W 002°05'0 0.0
2018-Dec-09 08:29N 57°09' W 002°05'0 0.0
2018-Dec-09 07:59N 57°09' W 002°05'0 0.0
2018-Dec-09 07:29N 57°09' W 002°05'0 0.0
2018-Dec-09 06:59N 57°09' W 002°05'1 1.2
2018-Dec-09 06:31N 57°09' W 002°04'612.5
2018-Dec-09 06:01N 57°13' W 001°56'815.5
2018-Dec-09 05:30N 57°19' W 001°47'1215.5
2018-Dec-09 04:44N 57°29' W 001°36'415.7
2018-Dec-09 04:30N 57°33' W 001°36'6 0.2
2018-Dec-07 21:16N 57°39' W 001°37'415.2
2018-Dec-07 21:01N 57°35' W 001°37'815.4
2018-Dec-07 20:31N 57°27' W 001°40'915.6
2018-Dec-07 19:56N 57°19' W 001°48'716.0
2018-Dec-07 19:31N 57°14' W 001°55'714.4
2018-Dec-07 19:01N 57°08' W 002°04'1 1.3
2018-Dec-07 18:29N 57°09' W 002°05'0 0.0
2018-Dec-07 17:59N 57°09' W 002°05'0 0.0
2018-Dec-07 17:29N 57°09' W 002°05'0 0.0
2018-Dec-07 16:59N 57°09' W 002°05'0 0.0
2018-Dec-07 16:29N 57°09' W 002°05'0 0.0
2018-Dec-07 15:59N 57°09' W 002°05'0 0.0
2018-Dec-07 15:29N 57°09' W 002°05'0 0.0
2018-Dec-07 14:59N 57°09' W 002°05'0 0.0
2018-Dec-07 14:29N 57°09' W 002°05'0 0.0
2018-Dec-07 13:59N 57°09' W 002°05'0 0.0
2018-Dec-07 13:29N 57°09' W 002°05'0 0.0
2018-Dec-07 12:59N 57°09' W 002°05'0 0.0
2018-Dec-07 12:29N 57°09' W 002°05'0 0.0
2018-Dec-07 11:59N 57°09' W 002°05'0 0.0
2018-Dec-07 11:29N 57°09' W 002°05'0 0.0
2018-Dec-07 10:59N 57°09' W 002°05'0 0.0
2018-Dec-07 10:29N 57°09' W 002°05'0 0.0
2018-Dec-07 09:59N 57°09' W 002°05'0 0.0
2018-Dec-07 09:29N 57°09' W 002°05'0 0.0
2018-Dec-07 08:59N 57°09' W 002°05'0 0.0
2018-Dec-07 08:29N 57°09' W 002°05'0 0.0
2018-Dec-07 07:59N 57°09' W 002°05'0 0.0
2018-Dec-07 07:29N 57°09' W 002°05'0 0.0
2018-Dec-07 06:59N 57°09' W 002°05'1 1.2
2018-Dec-07 06:31N 57°08' W 002°04'713.5
2018-Dec-07 06:00N 57°13' W 001°56'1414.5
2018-Dec-07 05:03N 57°25' W 001°41'010.1
2018-Dec-07 05:00N 57°25' W 001°41'610.1
2018-Dec-07 04:27N 57°30' W 001°36'610.8
2018-Dec-07 03:57N 57°36' W 001°36'2 0.1
2018-Dec-05 21:03N 57°38' W 001°36'117.2
2018-Dec-05 21:00N 57°37' W 001°36'917.4
2018-Dec-05 20:30N 57°29' W 001°37'1217.6
2018-Dec-05 19:50N 57°19' W 001°49'618.3
2018-Dec-05 19:30N 57°14' W 001°55'714.3
2018-Dec-05 19:01N 57°08' W 002°04'1 1.4
2018-Dec-05 18:30N 57°09' W 002°05'0 0.0
2018-Dec-05 17:58N 57°09' W 002°05'0 0.0
2018-Dec-05 17:28N 57°09' W 002°05'0 0.0
2018-Dec-05 16:58N 57°09' W 002°05'0 0.0
2018-Dec-05 16:28N 57°09' W 002°05'0 0.0
2018-Dec-05 15:58N 57°09' W 002°05'0 0.0
2018-Dec-05 15:28N 57°09' W 002°05'0 0.0
2018-Dec-05 14:58N 57°09' W 002°05'0 0.0
2018-Dec-05 14:28N 57°09' W 002°05'0 0.0
2018-Dec-05 13:58N 57°09' W 002°05'0 0.0
2018-Dec-05 13:28N 57°09' W 002°05'0 0.0
2018-Dec-05 12:58N 57°09' W 002°05'0 0.0
2018-Dec-05 12:28N 57°09' W 002°05'0 0.0
2018-Dec-05 11:58N 57°09' W 002°05'0 0.0
2018-Dec-05 11:28N 57°09' W 002°05'0 0.0
2018-Dec-05 10:59N 57°09' W 002°05'0 0.0
2018-Dec-05 10:26N 57°09' W 002°05'0 0.0
2018-Dec-05 09:59N 57°09' W 002°05'0 0.0
2018-Dec-05 09:29N 57°09' W 002°05'0 0.0
2018-Dec-05 08:56N 57°09' W 002°05'0 0.0
2018-Dec-05 08:29N 57°09' W 002°05'0 0.0
2018-Dec-05 07:59N 57°09' W 002°05'0 0.0
2018-Dec-05 07:29N 57°09' W 002°05'0 0.0
2018-Dec-05 06:59N 57°09' W 002°05'1 1.3
2018-Dec-05 06:31N 57°08' W 002°04'612.6
2018-Dec-05 06:00N 57°13' W 001°56'1018.4
2018-Dec-05 05:26N 57°22' W 001°46'716.1
2018-Dec-05 05:00N 57°28' W 001°39'816.4
2018-Dec-05 04:30N 57°36' W 001°38'1 0.0
2018-Dec-03 21:11N 57°37' W 001°37'214.6
2018-Dec-03 21:01N 57°35' W 001°37'814.8
2018-Dec-03 20:30N 57°27' W 001°38'814.8
2018-Dec-03 19:59N 57°21' W 001°46'715.6
2018-Dec-03 19:30N 57°15' W 001°54'815.5
2018-Dec-03 19:00N 57°09' W 002°03'1 2.1
2018-Dec-03 18:30N 57°09' W 002°05'0 0.0
2018-Dec-03 18:00N 57°09' W 002°05'0 0.0
2018-Dec-03 17:30N 57°09' W 002°05'0 0.0
2018-Dec-03 17:00N 57°09' W 002°05'0 0.0
2018-Dec-03 16:30N 57°09' W 002°05'0 0.0
2018-Dec-03 16:00N 57°09' W 002°05'0 0.0
2018-Dec-03 15:30N 57°09' W 002°05'0 0.0
2018-Dec-03 14:57N 57°09' W 002°05'0 0.0
2018-Dec-03 14:30N 57°09' W 002°05'0 0.0
2018-Dec-03 14:00N 57°09' W 002°05'0 0.0
2018-Dec-03 13:30N 57°09' W 002°05'0 0.0
2018-Dec-03 13:00N 57°09' W 002°05'0 0.0
2018-Dec-03 12:30N 57°09' W 002°05'0 0.0
2018-Dec-03 12:00N 57°09' W 002°05'0 0.0
2018-Dec-03 11:30N 57°09' W 002°05'0 0.0
2018-Dec-03 11:00N 57°09' W 002°05'0 0.0
2018-Dec-03 10:30N 57°09' W 002°05'0 0.0
2018-Dec-03 10:00N 57°09' W 002°05'0 0.0
2018-Dec-03 09:27N 57°09' W 002°05'0 0.0
2018-Dec-03 09:00N 57°09' W 002°05'0 0.0
2018-Dec-03 08:30N 57°09' W 002°05'0 0.0
2018-Dec-03 08:00N 57°09' W 002°05'0 0.0
2018-Dec-03 07:30N 57°09' W 002°05'0 0.0
2018-Dec-03 07:00N 57°09' W 002°05'1 1.2
2018-Dec-03 06:31N 57°08' W 002°04'713.3
2018-Dec-03 06:00N 57°13' W 001°56'916.5
2018-Dec-03 05:29N 57°21' W 001°47'916.6
2018-Dec-03 04:55N 57°28' W 001°37'717.9
2018-Dec-03 04:30N 57°36' W 001°38'92 3.3
2018-Dec-02 01:00N 59°04' W 002°28'714.0
2018-Dec-02 00:30N 59°01' W 002°40'713.8
2018-Dec-02 00:00N 59°01' W 002°53'3 2.5
2018-Dec-01 22:51N 58°60' W 002°58'411.7
2018-Dec-01 22:30N 59°01' W 002°51'1121.7
2018-Dec-01 22:00N 58°53' W 002°35'8123.0
2018-Dec-01 18:29N 57°37' W 001°43'1021.5
2018-Dec-01 18:00N 57°27' W 001°39'1122.0
2018-Dec-01 17:30N 57°18' W 001°51'1122.1
2018-Dec-01 17:00N 57°09' W 002°03'1 3.0
2018-Dec-01 16:31N 57°09' W 002°05'0 0.0
2018-Dec-01 15:59N 57°09' W 002°05'0 0.0
2018-Dec-01 15:30N 57°09' W 002°05'0 0.0
2018-Dec-01 15:00N 57°09' W 002°05'0 0.0
2018-Dec-01 14:31N 57°09' W 002°05'0 0.0
2018-Dec-01 13:58N 57°09' W 002°05'0 0.0
2018-Dec-01 13:30N 57°09' W 002°05'0 0.0
2018-Dec-01 12:58N 57°09' W 002°05'0 0.0
2018-Dec-01 12:28N 57°09' W 002°05'0 0.0
2018-Dec-01 11:58N 57°09' W 002°05'0 0.0
2018-Dec-01 11:29N 57°09' W 002°05'0 0.0
2018-Dec-01 10:59N 57°09' W 002°05'0 0.0
2018-Dec-01 10:28N 57°09' W 002°05'0 0.0
2018-Dec-01 09:58N 57°09' W 002°05'0 0.0
2018-Dec-01 09:28N 57°09' W 002°05'0 0.0
2018-Dec-01 08:58N 57°09' W 002°05'0 0.5
2018-Dec-01 08:30N 57°09' W 002°05'2 4.5
2018-Dec-01 08:00N 57°10' W 002°01'815.7
2018-Dec-01 07:30N 57°16' W 001°53'  
Track history (hours):
 
Tides and Currents Weather Stations Pressure Air Temp Water Temp Dewpoint Dewpoint Depression Visibility Wind Speed Wind Dir Waves Ship Positions

Hjaltland

Operator: NorthLink Orkey & Shetland Ferries Ltd

Last reported at 2018-Dec-11 07:28 UTC. Time now 2018-Dec-11 07:49 UTC.
Position N 57°09' W 002°05'.

Type: Ship. MMSI: 235450000.

Date/timePositionNaut miles runAvg speedWind from/ knotsBaromVisibWave heightAir tempDewpointWater temp
2018-Dec-11 07:28N 57°09' W 002°05'0 0.0
2018-Dec-11 06:58N 57°09' W 002°05'1 1.3
2018-Dec-11 06:30N 57°09' W 002°04'612.7
2018-Dec-11 06:01N 57°13' W 001°56'1414.7
2018-Dec-11 05:04N 57°24' W 001°42'111.2
2018-Dec-11 05:00N 57°25' W 001°41'612.0
2018-Dec-11 04:30N 57°31' W 001°36'97 3.6
2018-Dec-10 01:36N 59°03' W 002°27'111.8
2018-Dec-10 01:30N 59°03' W 002°28'610.6
2018-Dec-10 00:57N 59°01' W 002°39'612.6
2018-Dec-10 00:30N 59°01' W 002°50'4 3.1
2018-Dec-09 23:10N 59°00' W 002°58'313.4
2018-Dec-09 22:58N 59°01' W 002°53'919.6
2018-Dec-09 22:30N 58°56' W 002°38'8321.2
2018-Dec-09 18:35N 57°39' W 001°41'221.9
2018-Dec-09 18:30N 57°37' W 001°41'1122.2
2018-Dec-09 18:01N 57°26' W 001°39'1122.4
2018-Dec-09 17:31N 57°17' W 001°51'1121.3
2018-Dec-09 17:01N 57°09' W 002°04'1 1.6
2018-Dec-09 16:29N 57°09' W 002°05'0 0.0
2018-Dec-09 15:59N 57°09' W 002°05'0 0.0
2018-Dec-09 15:29N 57°09' W 002°05'0 0.0
2018-Dec-09 14:59N 57°09' W 002°05'0 0.0
2018-Dec-09 14:29N 57°09' W 002°05'0 0.0
2018-Dec-09 13:59N 57°09' W 002°05'0 0.0
2018-Dec-09 13:29N 57°09' W 002°05'0 0.0
2018-Dec-09 12:59N 57°09' W 002°05'0 0.0
2018-Dec-09 12:29N 57°09' W 002°05'0 0.0
2018-Dec-09 11:59N 57°09' W 002°05'0 0.0
2018-Dec-09 11:29N 57°09' W 002°05'0 0.0
2018-Dec-09 10:59N 57°09' W 002°05'0 0.0
2018-Dec-09 10:29N 57°09' W 002°05'0 0.0
2018-Dec-09 09:59N 57°09' W 002°05'0 0.0
2018-Dec-09 09:29N 57°09' W 002°05'0 0.0
2018-Dec-09 08:59N 57°09' W 002°05'0 0.0
2018-Dec-09 08:29N 57°09' W 002°05'0 0.0
2018-Dec-09 07:59N 57°09' W 002°05'0 0.0
2018-Dec-09 07:29N 57°09' W 002°05'0 0.0
2018-Dec-09 06:59N 57°09' W 002°05'1 1.2
2018-Dec-09 06:31N 57°09' W 002°04'612.5
2018-Dec-09 06:01N 57°13' W 001°56'815.5
2018-Dec-09 05:30N 57°19' W 001°47'1215.5
2018-Dec-09 04:44N 57°29' W 001°36'415.7
2018-Dec-09 04:30N 57°33' W 001°36'6 0.2
2018-Dec-07 21:16N 57°39' W 001°37'415.2
2018-Dec-07 21:01N 57°35' W 001°37'815.4
2018-Dec-07 20:31N 57°27' W 001°40'915.6
2018-Dec-07 19:56N 57°19' W 001°48'716.0
2018-Dec-07 19:31N 57°14' W 001°55'714.4
2018-Dec-07 19:01N 57°08' W 002°04'1 1.3
2018-Dec-07 18:29N 57°09' W 002°05'0 0.0
2018-Dec-07 17:59N 57°09' W 002°05'0 0.0
2018-Dec-07 17:29N 57°09' W 002°05'0 0.0
2018-Dec-07 16:59N 57°09' W 002°05'0 0.0
2018-Dec-07 16:29N 57°09' W 002°05'0 0.0
2018-Dec-07 15:59N 57°09' W 002°05'0 0.0
2018-Dec-07 15:29N 57°09' W 002°05'0 0.0
2018-Dec-07 14:59N 57°09' W 002°05'0 0.0
2018-Dec-07 14:29N 57°09' W 002°05'0 0.0
2018-Dec-07 13:59N 57°09' W 002°05'0 0.0
2018-Dec-07 13:29N 57°09' W 002°05'0 0.0
2018-Dec-07 12:59N 57°09' W 002°05'0 0.0
2018-Dec-07 12:29N 57°09' W 002°05'0 0.0
2018-Dec-07 11:59N 57°09' W 002°05'0 0.0
2018-Dec-07 11:29N 57°09' W 002°05'0 0.0
2018-Dec-07 10:59N 57°09' W 002°05'0 0.0
2018-Dec-07 10:29N 57°09' W 002°05'0 0.0
2018-Dec-07 09:59N 57°09' W 002°05'0 0.0
2018-Dec-07 09:29N 57°09' W 002°05'0 0.0
2018-Dec-07 08:59N 57°09' W 002°05'0 0.0
2018-Dec-07 08:29N 57°09' W 002°05'0 0.0
2018-Dec-07 07:59N 57°09' W 002°05'0 0.0
2018-Dec-07 07:29N 57°09' W 002°05'0 0.0
2018-Dec-07 06:59N 57°09' W 002°05'1 1.2
2018-Dec-07 06:31N 57°08' W 002°04'713.5
2018-Dec-07 06:00N 57°13' W 001°56'1414.5
2018-Dec-07 05:03N 57°25' W 001°41'010.1
2018-Dec-07 05:00N 57°25' W 001°41'610.1
2018-Dec-07 04:27N 57°30' W 001°36'610.8
2018-Dec-07 03:57N 57°36' W 001°36'2 0.1
2018-Dec-05 21:03N 57°38' W 001°36'117.2
2018-Dec-05 21:00N 57°37' W 001°36'917.4
2018-Dec-05 20:30N 57°29' W 001°37'1217.6
2018-Dec-05 19:50N 57°19' W 001°49'618.3
2018-Dec-05 19:30N 57°14' W 001°55'714.3
2018-Dec-05 19:01N 57°08' W 002°04'1 1.4
2018-Dec-05 18:30N 57°09' W 002°05'0 0.0
2018-Dec-05 17:58N 57°09' W 002°05'0 0.0
2018-Dec-05 17:28N 57°09' W 002°05'0 0.0
2018-Dec-05 16:58N 57°09' W 002°05'0 0.0
2018-Dec-05 16:28N 57°09' W 002°05'0 0.0
2018-Dec-05 15:58N 57°09' W 002°05'0 0.0
2018-Dec-05 15:28N 57°09' W 002°05'0 0.0
2018-Dec-05 14:58N 57°09' W 002°05'0 0.0
2018-Dec-05 14:28N 57°09' W 002°05'0 0.0
2018-Dec-05 13:58N 57°09' W 002°05'0 0.0
2018-Dec-05 13:28N 57°09' W 002°05'0 0.0
2018-Dec-05 12:58N 57°09' W 002°05'0 0.0
2018-Dec-05 12:28N 57°09' W 002°05'0 0.0
2018-Dec-05 11:58N 57°09' W 002°05'0 0.0
2018-Dec-05 11:28N 57°09' W 002°05'0 0.0
2018-Dec-05 10:59N 57°09' W 002°05'0 0.0
2018-Dec-05 10:26N 57°09' W 002°05'0 0.0
2018-Dec-05 09:59N 57°09' W 002°05'0 0.0
2018-Dec-05 09:29N 57°09' W 002°05'0 0.0
2018-Dec-05 08:56N 57°09' W 002°05'0 0.0
2018-Dec-05 08:29N 57°09' W 002°05'0 0.0
2018-Dec-05 07:59N 57°09' W 002°05'0 0.0
2018-Dec-05 07:29N 57°09' W 002°05'0 0.0
2018-Dec-05 06:59N 57°09' W 002°05'1 1.3
2018-Dec-05 06:31N 57°08' W 002°04'612.6
2018-Dec-05 06:00N 57°13' W 001°56'1018.4
2018-Dec-05 05:26N 57°22' W 001°46'716.1
2018-Dec-05 05:00N 57°28' W 001°39'816.4
2018-Dec-05 04:30N 57°36' W 001°38'1 0.0
2018-Dec-03 21:11N 57°37' W 001°37'214.6
2018-Dec-03 21:01N 57°35' W 001°37'814.8
2018-Dec-03 20:30N 57°27' W 001°38'814.8
2018-Dec-03 19:59N 57°21' W 001°46'715.6
2018-Dec-03 19:30N 57°15' W 001°54'815.5
2018-Dec-03 19:00N 57°09' W 002°03'1 2.1
2018-Dec-03 18:30N 57°09' W 002°05'0 0.0
2018-Dec-03 18:00N 57°09' W 002°05'0 0.0
2018-Dec-03 17:30N 57°09' W 002°05'0 0.0
2018-Dec-03 17:00N 57°09' W 002°05'0 0.0
2018-Dec-03 16:30N 57°09' W 002°05'0 0.0
2018-Dec-03 16:00N 57°09' W 002°05'0 0.0
2018-Dec-03 15:30N 57°09' W 002°05'0 0.0
2018-Dec-03 14:57N 57°09' W 002°05'0 0.0
2018-Dec-03 14:30N 57°09' W 002°05'0 0.0
2018-Dec-03 14:00N 57°09' W 002°05'0 0.0
2018-Dec-03 13:30N 57°09' W 002°05'0 0.0
2018-Dec-03 13:00N 57°09' W 002°05'0 0.0
2018-Dec-03 12:30N 57°09' W 002°05'0 0.0
2018-Dec-03 12:00N 57°09' W 002°05'0 0.0
2018-Dec-03 11:30N 57°09' W 002°05'0 0.0
2018-Dec-03 11:00N 57°09' W 002°05'0 0.0
2018-Dec-03 10:30N 57°09' W 002°05'0 0.0
2018-Dec-03 10:00N 57°09' W 002°05'0 0.0
2018-Dec-03 09:27N 57°09' W 002°05'0 0.0
2018-Dec-03 09:00N 57°09' W 002°05'0 0.0
2018-Dec-03 08:30N 57°09' W 002°05'0 0.0
2018-Dec-03 08:00N 57°09' W 002°05'0 0.0
2018-Dec-03 07:30N 57°09' W 002°05'0 0.0
2018-Dec-03 07:00N 57°09' W 002°05'1 1.2
2018-Dec-03 06:31N 57°08' W 002°04'713.3
2018-Dec-03 06:00N 57°13' W 001°56'916.5
2018-Dec-03 05:29N 57°21' W 001°47'916.6
2018-Dec-03 04:55N 57°28' W 001°37'717.9
2018-Dec-03 04:30N 57°36' W 001°38'92 3.3
2018-Dec-02 01:00N 59°04' W 002°28'714.0
2018-Dec-02 00:30N 59°01' W 002°40'713.8
2018-Dec-02 00:00N 59°01' W 002°53'3 2.5
2018-Dec-01 22:51N 58°60' W 002°58'411.7
2018-Dec-01 22:30N 59°01' W 002°51'1121.7
2018-Dec-01 22:00N 58°53' W 002°35'8123.0
2018-Dec-01 18:29N 57°37' W 001°43'1021.5
2018-Dec-01 18:00N 57°27' W 001°39'1122.0
2018-Dec-01 17:30N 57°18' W 001°51'1122.1
2018-Dec-01 17:00N 57°09' W 002°03'1 3.0
2018-Dec-01 16:31N 57°09' W 002°05'0 0.0
2018-Dec-01 15:59N 57°09' W 002°05'0 0.0
2018-Dec-01 15:30N 57°09' W 002°05'0 0.0
2018-Dec-01 15:00N 57°09' W 002°05'0 0.0
2018-Dec-01 14:31N 57°09' W 002°05'0 0.0
2018-Dec-01 13:58N 57°09' W 002°05'0 0.0
2018-Dec-01 13:30N 57°09' W 002°05'0 0.0
2018-Dec-01 12:58N 57°09' W 002°05'0 0.0
2018-Dec-01 12:28N 57°09' W 002°05'0 0.0
2018-Dec-01 11:58N 57°09' W 002°05'0 0.0
2018-Dec-01 11:29N 57°09' W 002°05'0 0.0
2018-Dec-01 10:59N 57°09' W 002°05'0 0.0
2018-Dec-01 10:28N 57°09' W 002°05'0 0.0
2018-Dec-01 09:58N 57°09' W 002°05'0 0.0
2018-Dec-01 09:28N 57°09' W 002°05'0 0.0
2018-Dec-01 08:58N 57°09' W 002°05'0 0.5
2018-Dec-01 08:30N 57°09' W 002°05'2 4.5
2018-Dec-01 08:00N 57°10' W 002°01'815.7
2018-Dec-01 07:30N 57°16' W 001°53'  

Dump ship's entire track history